LEMG/AGP METAR and TAF weather

Enter ICAO airport designator
Station Type Date Time Source
LEMG METAR 2024/04/17 19:00 UTC NOAA

LEMG 171900Z 11006KT 070V140 9999 FEW030 18/15 Q1014 NOSIG


Station Type Date Time Source
LEMG Decoded METAR 2024/04/17 19:00 UTC NOAA

Malaga / Aeropuerto, Spain (LEMG) 36-40N 004-29W 7M
Apr 17, 2024 - 03:00 PM EDT / 2024.04.17 1900 UTC
Wind: from the ESE (110 degrees) at 7 MPH (6 KT) (direction variable):0
Visibility: greater than 7 mile(s):0
Sky conditions: mostly clear
Temperature: 64 F (18 C)
Dew Point: 59 F (15 C)
Relative Humidity: 82%
Pressure (altimeter): 29.94 in. Hg (1014 hPa)
ob: LEMG 171900Z 11006KT 070V140 9999 FEW030 18/15 Q1014 NOSIG
cycle: 19

Station Type Date Time Source
LEMG TAF 2024/04/17 18:27 UTC NOAA